createdAt,value
2019-03-11T00:02:17.360Z,68.70
2019-03-11T00:04:50.404Z,69.00
2019-03-11T00:07:23.416Z,69.20
2019-03-11T00:09:56.460Z,69.20
2019-03-11T00:12:30.073Z,69.40
2019-03-11T00:15:03.100Z,69.60
2019-03-11T00:17:36.252Z,69.20
2019-03-11T00:20:09.967Z,69.60
2019-03-11T00:22:43.178Z,70.10
2019-03-11T00:25:16.457Z,71.40
2019-03-11T00:27:49.825Z,70.40
2019-03-11T00:30:23.036Z,70.30
2019-03-11T00:32:55.852Z,70.30
2019-03-11T00:35:29.057Z,69.80
2019-03-11T00:38:01.951Z,69.20
2019-03-11T00:40:35.066Z,69.40
2019-03-11T00:43:08.231Z,71.30
2019-03-11T00:45:41.254Z,71.50
2019-03-11T00:48:14.201Z,72.10
2019-03-11T00:50:47.325Z,72.30
2019-03-11T00:53:20.199Z,72.60
2019-03-11T00:55:53.089Z,72.80
2019-03-11T00:58:26.055Z,73.10
2019-03-11T01:00:59.062Z,73.40
2019-03-11T01:03:32.002Z,73.90
2019-03-11T01:06:04.890Z,74.00
2019-03-11T01:08:37.783Z,74.90
2019-03-11T01:11:10.988Z,75.70
2019-03-11T01:13:44.145Z,76.30
2019-03-11T01:16:27.928Z,76.80
2019-03-11T01:19:00.834Z,77.40
2019-03-11T01:21:33.352Z,77.70
2019-03-11T01:24:06.227Z,77.90
2019-03-11T01:26:39.111Z,78.10
2019-03-11T01:29:11.924Z,78.60
2019-03-11T01:31:45.039Z,79.00
2019-03-11T01:34:18.007Z,79.00
2019-03-11T01:36:50.733Z,79.60
2019-03-11T01:39:23.469Z,79.50
2019-03-11T01:41:56.062Z,79.20
2019-03-11T01:44:33.136Z,79.20
2019-03-11T01:47:06.037Z,79.10
2019-03-11T01:49:38.746Z,78.70
2019-03-11T01:52:11.515Z,79.00
2019-03-11T01:54:45.548Z,78.00
2019-03-11T01:57:18.402Z,77.50
2019-03-11T01:59:51.502Z,76.80
2019-03-11T02:02:24.288Z,76.30
2019-03-11T02:04:57.292Z,76.70
2019-03-11T02:07:30.249Z,77.70
2019-03-11T02:10:03.202Z,77.00
2019-03-11T02:12:36.132Z,76.20
2019-03-11T02:15:10.494Z,76.00
2019-03-11T02:17:43.533Z,75.60
2019-03-11T02:20:16.664Z,75.10
2019-03-11T02:22:49.560Z,75.50
2019-03-11T02:25:22.666Z,75.40
2019-03-11T02:27:55.426Z,75.20
2019-03-11T02:30:28.337Z,75.30
2019-03-11T02:33:01.718Z,75.30
2019-03-11T02:35:34.769Z,75.60
2019-03-11T02:38:07.648Z,75.90
2019-03-11T02:40:40.651Z,76.40
2019-03-11T02:43:13.293Z,77.70
2019-03-11T02:45:47.770Z,78.60
2019-03-11T02:48:20.578Z,78.70
2019-03-11T02:50:53.400Z,78.60
2019-03-11T02:53:26.333Z,78.70
2019-03-11T02:55:59.200Z,78.70
2019-03-11T02:58:32.066Z,78.80
2019-03-11T03:01:25.350Z,79.20
2019-03-11T03:04:14.176Z,79.70
2019-03-11T03:06:47.109Z,80.30
2019-03-11T03:09:20.341Z,80.60
2019-03-11T03:11:53.221Z,80.90
2019-03-11T03:14:26.419Z,80.60
2019-03-11T03:16:59.454Z,80.80
2019-03-11T03:19:32.342Z,81.20
2019-03-11T03:22:05.353Z,81.30
2019-03-11T03:24:38.346Z,81.90
2019-03-11T03:27:12.165Z,82.70
2019-03-11T03:29:45.394Z,83.70
2019-03-11T03:32:18.116Z,83.60
2019-03-11T03:34:51.086Z,83.90
2019-03-11T03:37:24.125Z,84.30
2019-03-11T03:39:57.008Z,84.30
2019-03-11T03:42:29.986Z,84.50
2019-03-11T03:45:37.946Z,85.00
2019-03-11T03:48:11.282Z,85.50
2019-03-11T03:50:43.993Z,85.10
2019-03-11T03:53:16.875Z,85.30
2019-03-11T03:55:49.804Z,85.60
2019-03-11T03:58:22.812Z,85.70
2019-03-11T04:00:56.945Z,85.80
2019-03-11T04:03:29.923Z,86.00
2019-03-11T04:06:02.779Z,86.10
2019-03-11T04:08:35.771Z,86.20
2019-03-11T04:11:08.536Z,86.30
2019-03-11T04:13:41.328Z,86.20
2019-03-11T04:16:14.249Z,86.40
2019-03-11T04:18:57.953Z,87.20
2019-03-11T04:21:31.193Z,88.00
2019-03-11T04:24:04.793Z,88.50
2019-03-11T04:26:38.828Z,88.10
2019-03-11T04:29:11.844Z,88.40
2019-03-11T04:31:44.701Z,89.20
2019-03-11T04:34:17.747Z,89.20
2019-03-11T04:36:50.816Z,89.90
2019-03-11T04:39:23.725Z,88.70
2019-03-11T04:41:56.724Z,88.90
2019-03-11T04:44:30.155Z,89.40
2019-03-11T04:47:02.964Z,89.80
2019-03-11T04:49:36.319Z,90.20
2019-03-11T04:52:10.287Z,90.70
2019-03-11T04:54:43.152Z,90.80
2019-03-11T04:57:15.850Z,90.60
2019-03-11T04:59:48.863Z,91.20
2019-03-11T05:02:21.766Z,90.90
2019-03-11T05:04:54.660Z,90.80
2019-03-11T05:07:27.853Z,91.00
2019-03-11T05:10:00.954Z,91.60
2019-03-11T05:12:34.036Z,92.20
2019-03-11T05:15:07.601Z,92.60
2019-03-11T05:17:40.436Z,92.70
2019-03-11T05:20:14.173Z,92.40
2019-03-11T05:22:47.257Z,92.10
2019-03-11T05:25:20.338Z,91.90
2019-03-11T05:27:53.507Z,91.90
2019-03-11T05:30:26.454Z,92.00
2019-03-11T05:32:59.351Z,92.30
2019-03-11T05:35:32.586Z,92.50
2019-03-11T05:38:05.233Z,92.20
2019-03-11T05:40:38.481Z,92.40
2019-03-11T05:43:11.530Z,92.60
2019-03-11T05:45:44.602Z,92.90
2019-03-11T05:48:17.902Z,93.20
2019-03-11T05:50:51.065Z,93.20
2019-03-11T05:53:23.782Z,93.00
2019-03-11T05:55:56.626Z,92.80
2019-03-11T05:58:29.568Z,92.80
2019-03-11T06:01:02.523Z,92.90
2019-03-11T06:03:36.252Z,92.70
2019-03-11T06:06:09.255Z,92.70
2019-03-11T06:08:42.086Z,92.20
2019-03-11T06:11:15.356Z,91.50
2019-03-11T06:13:48.907Z,91.00
2019-03-11T06:16:22.225Z,90.60
2019-03-11T06:18:55.416Z,89.70
2019-03-11T06:21:41.254Z,89.00
2019-03-11T06:24:14.236Z,87.30
2019-03-11T06:26:47.533Z,85.60
2019-03-11T06:29:29.898Z,84.70
2019-03-11T06:31:55.702Z,83.00
2019-03-11T06:34:28.614Z,80.80
2019-03-11T06:37:01.545Z,80.80
2019-03-11T06:39:34.685Z,79.90
2019-03-11T06:42:07.854Z,78.50
2019-03-11T06:44:41.238Z,77.60
2019-03-11T06:47:14.481Z,75.70
2019-03-11T06:49:47.959Z,73.90
2019-03-11T06:52:20.968Z,73.90
2019-03-11T06:54:54.156Z,72.30
2019-03-11T06:57:27.341Z,71.00
2019-03-11T07:00:01.059Z,69.50
2019-03-11T07:02:34.459Z,68.90
2019-03-11T07:05:18.896Z,68.40
2019-03-11T07:07:43.091Z,65.10
2019-03-11T07:10:16.168Z,64.20
2019-03-11T07:12:49.917Z,62.70
2019-03-11T07:15:23.243Z,61.80
2019-03-11T07:17:56.277Z,61.10
2019-03-11T07:20:29.590Z,60.20
2019-03-11T07:23:02.706Z,59.60
2019-03-11T07:25:35.702Z,59.10
2019-03-11T07:28:08.858Z,59.50
2019-03-11T07:30:42.492Z,59.40
2019-03-11T07:33:20.261Z,58.60
2019-03-11T07:35:53.448Z,59.60
2019-03-11T07:38:26.758Z,60.20
2019-03-11T07:41:01.332Z,59.80
2019-03-11T07:43:35.022Z,59.60
2019-03-11T07:46:08.203Z,58.10
2019-03-11T07:48:41.530Z,57.70
2019-03-11T07:51:14.930Z,57.30
2019-03-11T07:53:47.947Z,56.10
2019-03-11T07:56:20.846Z,55.90
2019-03-11T07:58:54.306Z,55.80
2019-03-11T08:01:27.506Z,56.50
2019-03-11T08:04:00.395Z,56.30
2019-03-11T08:06:33.709Z,57.10
2019-03-11T08:09:08.299Z,58.00
2019-03-11T08:11:42.638Z,57.80
2019-03-11T08:14:16.227Z,56.20
2019-03-11T08:16:49.968Z,55.40
2019-03-11T08:19:22.942Z,53.90
2019-03-11T08:21:56.229Z,53.70
2019-03-11T08:24:29.507Z,54.00
2019-03-11T08:27:02.606Z,53.50
2019-03-11T08:29:35.829Z,53.80
2019-03-11T08:32:08.940Z,53.50
2019-03-11T08:34:42.153Z,53.80
2019-03-11T08:37:15.149Z,54.60
2019-03-11T08:39:48.247Z,55.10
2019-03-11T08:42:21.724Z,55.30
2019-03-11T08:44:54.730Z,56.00
2019-03-11T08:47:27.981Z,56.70
2019-03-11T08:50:01.017Z,57.50
2019-03-11T08:52:34.059Z,57.80
2019-03-11T08:55:07.940Z,58.90
2019-03-11T08:57:41.525Z,60.00
2019-03-11T09:00:15.027Z,60.90
2019-03-11T09:02:48.200Z,60.80
2019-03-11T09:05:21.584Z,61.70
2019-03-11T09:07:54.690Z,59.90
2019-03-11T09:10:27.576Z,59.10
2019-03-11T09:13:00.778Z,59.60
2019-03-11T09:15:34.129Z,59.00
2019-03-11T09:18:07.512Z,58.30
2019-03-11T09:20:40.755Z,58.50
2019-03-11T09:23:14.460Z,57.50
2019-03-11T09:25:47.573Z,57.50
2019-03-11T09:28:20.827Z,57.70
2019-03-11T09:30:54.497Z,57.80
2019-03-11T09:33:28.060Z,56.60
2019-03-11T09:36:01.645Z,57.80
2019-03-11T09:38:34.980Z,58.10
2019-03-11T09:41:08.713Z,57.30
2019-03-11T09:43:41.876Z,57.30
2019-03-11T09:46:14.830Z,58.00
2019-03-11T09:48:48.029Z,58.10
2019-03-11T09:51:21.779Z,59.00
2019-03-11T09:53:55.002Z,59.40
2019-03-11T09:56:28.665Z,59.80
2019-03-11T09:59:01.976Z,59.80
2019-03-11T10:01:35.183Z,59.60
2019-03-11T10:04:09.051Z,59.90
2019-03-11T10:06:42.345Z,60.30
2019-03-11T10:09:15.759Z,61.20
2019-03-11T10:11:48.907Z,61.10
2019-03-11T10:14:22.405Z,61.40
2019-03-11T10:16:55.266Z,61.70
2019-03-11T10:19:28.923Z,62.10
2019-03-11T10:22:02.909Z,62.40
2019-03-11T10:24:36.130Z,62.90
2019-03-11T10:27:09.437Z,64.50
2019-03-11T10:29:42.619Z,63.60
2019-03-11T10:32:15.501Z,64.70
2019-03-11T10:34:48.582Z,65.00
2019-03-11T10:37:22.003Z,65.60
2019-03-11T10:39:55.126Z,65.30
2019-03-11T10:42:28.281Z,65.70
2019-03-11T10:45:01.101Z,66.10
2019-03-11T10:47:34.660Z,67.00
2019-03-11T10:50:08.920Z,66.80
2019-03-11T10:52:42.053Z,66.40
2019-03-11T10:55:16.072Z,66.40
2019-03-11T10:57:49.849Z,65.50
2019-03-11T11:00:25.723Z,64.80
2019-03-11T11:02:58.767Z,64.50
2019-03-11T11:05:32.144Z,64.70
2019-03-11T11:08:05.354Z,64.80
2019-03-11T11:10:38.407Z,65.90
2019-03-11T11:13:11.597Z,67.20
2019-03-11T11:15:44.723Z,68.20
2019-03-11T11:18:17.807Z,67.00
2019-03-11T11:20:51.155Z,68.20
2019-03-11T11:23:24.641Z,69.60
2019-03-11T11:26:00.779Z,69.50
2019-03-11T11:28:33.689Z,68.30
2019-03-11T11:31:07.305Z,68.00
2019-03-11T11:33:40.776Z,68.40
2019-03-11T11:36:15.894Z,67.40
2019-03-11T11:38:49.253Z,67.80
2019-03-11T11:41:22.542Z,69.20
2019-03-11T11:43:55.728Z,68.50
2019-03-11T11:46:28.755Z,69.70
2019-03-11T11:49:01.997Z,69.60
2019-03-11T11:51:35.318Z,70.20
2019-03-11T11:54:08.702Z,69.00
2019-03-11T11:56:41.842Z,66.00
2019-03-11T11:59:14.977Z,66.90
2019-03-11T12:02:03.624Z,63.70
2019-03-11T12:04:32.549Z,62.60
2019-03-11T12:07:06.761Z,61.00
2019-03-11T12:09:40.062Z,59.80
2019-03-11T12:12:13.292Z,59.60
2019-03-11T12:14:46.664Z,59.80
2019-03-11T12:17:19.855Z,60.70
2019-03-11T12:19:52.957Z,60.10
2019-03-11T12:22:46.230Z,60.70
2019-03-11T12:25:19.833Z,60.50
2019-03-11T12:27:54.689Z,61.60
2019-03-11T12:30:28.778Z,61.70
2019-03-11T12:33:02.596Z,62.00
2019-03-11T12:35:36.158Z,61.70
2019-03-11T12:38:09.854Z,61.50
2019-03-11T12:40:42.996Z,62.20
2019-03-11T12:43:16.359Z,61.80
2019-03-11T12:45:49.500Z,61.40
2019-03-11T12:48:22.532Z,61.80
2019-03-11T12:50:55.906Z,61.90
2019-03-11T12:53:28.978Z,62.60
2019-03-11T12:56:01.962Z,62.00
2019-03-11T12:58:41.488Z,62.40
2019-03-11T13:01:11.953Z,63.90
2019-03-11T13:03:46.361Z,64.90
2019-03-11T13:06:22.394Z,66.30
2019-03-11T13:08:55.527Z,66.80
2019-03-11T13:11:31.984Z,68.20
2019-03-11T13:14:05.738Z,68.00
2019-03-11T13:16:38.468Z,68.40
2019-03-11T13:19:13.423Z,68.30
2019-03-11T13:21:47.681Z,68.90
2019-03-11T13:24:20.995Z,67.80
2019-03-11T13:26:54.176Z,67.90
2019-03-11T13:29:27.309Z,67.50
2019-03-11T13:32:00.202Z,68.70
2019-03-11T13:34:33.414Z,69.50
2019-03-11T13:37:06.681Z,70.00
2019-03-11T13:39:39.948Z,70.80
2019-03-11T13:42:13.071Z,71.50
2019-03-11T13:44:47.037Z,72.60
2019-03-11T13:47:20.339Z,74.10
2019-03-11T13:49:53.310Z,74.10
2019-03-11T13:52:26.450Z,73.40
2019-03-11T13:55:09.765Z,73.90
2019-03-11T13:57:34.522Z,74.00
2019-03-11T14:00:07.997Z,74.40
2019-03-11T14:02:41.118Z,74.70
2019-03-11T14:05:14.173Z,73.60
2019-03-11T14:07:47.268Z,73.60
2019-03-11T14:10:20.618Z,72.70
2019-03-11T14:12:53.967Z,72.60
2019-03-11T14:15:27.385Z,73.00
2019-03-11T14:18:00.935Z,73.50
2019-03-11T14:20:33.903Z,74.80
2019-03-11T14:23:06.746Z,74.90
2019-03-11T14:25:41.204Z,75.70
2019-03-11T14:28:14.150Z,76.60
2019-03-11T14:30:47.685Z,76.50
2019-03-11T14:33:22.133Z,78.20
2019-03-11T14:35:55.354Z,78.30
2019-03-11T14:38:28.507Z,79.30
2019-03-11T14:41:01.852Z,80.00
2019-03-11T14:43:34.907Z,81.00
2019-03-11T14:46:08.121Z,80.80
2019-03-11T14:48:41.642Z,81.90
2019-03-11T14:51:14.981Z,82.00
2019-03-11T14:53:47.862Z,81.20
2019-03-11T14:56:21.173Z,82.10
2019-03-11T14:58:54.246Z,82.50
2019-03-11T15:01:27.846Z,82.50
2019-03-11T15:04:00.819Z,83.10
2019-03-11T15:06:33.893Z,83.50
2019-03-11T15:09:08.429Z,83.40
2019-03-11T15:11:41.574Z,84.20
2019-03-11T15:14:14.786Z,85.00
2019-03-11T15:16:48.053Z,87.40
2019-03-11T15:19:21.651Z,88.00
2019-03-11T15:21:54.874Z,88.20
2019-03-11T15:24:30.925Z,88.10
2019-03-11T15:27:04.059Z,88.30
2019-03-11T15:29:37.264Z,89.50
2019-03-11T15:32:15.848Z,90.20
2019-03-11T15:34:48.979Z,90.60
2019-03-11T15:37:22.630Z,90.90
2019-03-11T15:39:55.989Z,91.60
2019-03-11T15:42:29.001Z,92.00
2019-03-11T15:45:02.096Z,92.40
2019-03-11T15:47:35.223Z,92.60
2019-03-11T15:50:13.288Z,92.90
2019-03-11T15:52:47.116Z,93.00
2019-03-11T15:55:20.616Z,93.20
2019-03-11T15:57:55.156Z,93.50
2019-03-11T16:00:28.204Z,93.60
2019-03-11T16:03:01.342Z,94.00
2019-03-11T16:05:35.456Z,94.30
2019-03-11T16:08:08.403Z,94.80
2019-03-11T16:10:41.314Z,94.90
2019-03-11T16:13:14.526Z,95.10
2019-03-11T16:15:48.707Z,95.50
2019-03-11T16:18:22.331Z,95.50
2019-03-11T16:20:56.552Z,95.10
2019-03-11T16:23:31.271Z,95.20
2019-03-11T16:26:04.106Z,95.50
2019-03-11T16:28:47.735Z,96.30
2019-03-11T16:31:12.996Z,96.50
2019-03-11T16:33:47.595Z,96.90
2019-03-11T16:36:31.673Z,97.00
2019-03-11T16:39:06.177Z,97.10
2019-03-11T16:41:39.356Z,97.00
2019-03-11T16:44:12.491Z,96.80
2019-03-11T16:46:45.311Z,96.60
2019-03-11T16:49:18.738Z,96.70
2019-03-11T16:51:51.711Z,96.70
2019-03-11T16:54:24.535Z,96.70
2019-03-11T16:56:57.604Z,96.70
2019-03-11T16:59:33.166Z,97.00
2019-03-11T17:02:06.934Z,97.20
2019-03-11T17:04:39.613Z,97.20
2019-03-11T17:07:12.710Z,96.90
2019-03-11T17:09:46.370Z,96.90
2019-03-11T17:12:19.605Z,96.90
2019-03-11T17:14:52.770Z,97.00
2019-03-11T17:17:27.337Z,97.40
2019-03-11T17:20:00.573Z,97.20
2019-03-11T17:22:33.848Z,97.40
2019-03-11T17:25:08.093Z,97.40
2019-03-11T17:27:41.476Z,97.50
2019-03-11T17:30:17.119Z,97.80
2019-03-11T17:32:50.417Z,98.20
2019-03-11T17:35:23.868Z,98.30
2019-03-11T17:37:57.515Z,98.10
2019-03-11T17:40:30.802Z,97.90
2019-03-11T17:43:03.899Z,98.20
2019-03-11T17:45:36.696Z,98.40
2019-03-11T17:48:09.351Z,98.30
2019-03-11T17:50:42.167Z,98.60
2019-03-11T17:53:19.794Z,98.70
2019-03-11T17:55:50.472Z,98.80
2019-03-11T17:58:23.574Z,99.20
2019-03-11T18:00:56.448Z,99.60
2019-03-11T18:03:29.267Z,99.80
2019-03-11T18:06:11.087Z,99.70
2019-03-11T18:08:37.174Z,99.90
2019-03-11T18:11:10.501Z,99.90
2019-03-11T18:13:43.346Z,99.80
2019-03-11T18:16:16.213Z,99.70
2019-03-11T18:18:49.502Z,99.90
2019-03-11T18:21:22.922Z,99.90
2019-03-11T18:23:55.841Z,99.90
2019-03-11T18:26:28.906Z,99.90
2019-03-11T18:29:02.075Z,99.90
2019-03-11T18:31:35.270Z,99.90
2019-03-11T18:34:08.265Z,99.90
2019-03-11T18:36:43.476Z,99.90
2019-03-11T18:39:19.187Z,99.90
2019-03-11T18:41:51.469Z,99.90
2019-03-11T18:44:24.979Z,99.90
2019-03-11T18:46:57.855Z,99.90
2019-03-11T18:49:31.124Z,99.90
2019-03-11T18:52:04.467Z,99.90
2019-03-11T18:54:38.061Z,99.90
2019-03-11T18:57:10.989Z,99.90
2019-03-11T18:59:43.998Z,99.90
2019-03-11T19:02:16.762Z,99.90
2019-03-11T19:04:50.049Z,99.90
2019-03-11T19:07:26.350Z,99.90
2019-03-11T19:09:59.341Z,99.90
2019-03-11T19:12:32.655Z,99.90
2019-03-11T19:15:06.109Z,99.90
2019-03-11T19:17:38.862Z,99.90
2019-03-11T19:20:15.108Z,99.90
2019-03-11T19:22:48.869Z,99.90
2019-03-11T19:25:22.325Z,99.90
2019-03-11T19:27:55.255Z,99.90
2019-03-11T19:30:28.368Z,99.90
2019-03-11T19:33:01.483Z,99.90
2019-03-11T19:35:35.472Z,99.90
2019-03-11T19:38:09.521Z,99.90
2019-03-11T19:40:44.525Z,99.90
2019-03-11T19:43:17.724Z,99.90
2019-03-11T19:45:51.344Z,99.90
2019-03-11T19:48:27.187Z,99.90
2019-03-11T19:51:00.316Z,99.90
2019-03-11T19:53:33.349Z,99.90
2019-03-11T19:56:06.614Z,99.90
2019-03-11T19:58:39.134Z,99.90
2019-03-11T20:01:12.371Z,99.90
2019-03-11T20:03:45.731Z,99.90
2019-03-11T20:06:18.709Z,99.90
2019-03-11T20:08:52.030Z,99.90
2019-03-11T20:11:25.202Z,99.90
2019-03-11T20:13:58.140Z,99.90
2019-03-11T20:16:31.467Z,99.90
2019-03-11T20:19:04.658Z,99.90
2019-03-11T20:21:37.863Z,99.90
2019-03-11T20:24:10.901Z,99.90
2019-03-11T20:26:43.434Z,99.90
2019-03-11T20:29:16.703Z,99.90
2019-03-11T20:31:49.766Z,99.90
2019-03-11T20:34:23.579Z,99.90
2019-03-11T20:36:57.148Z,99.90
2019-03-11T20:39:30.331Z,99.90
2019-03-11T20:42:03.363Z,99.90
2019-03-11T20:44:36.524Z,99.90
2019-03-11T20:47:10.062Z,99.90
2019-03-11T20:49:43.485Z,99.90
2019-03-11T20:52:16.720Z,99.90
2019-03-11T20:54:49.562Z,99.90
2019-03-11T20:57:22.534Z,99.90
2019-03-11T20:59:55.507Z,99.90
2019-03-11T21:02:28.471Z,99.90
2019-03-11T21:05:01.644Z,99.90
2019-03-11T21:07:34.716Z,99.90
2019-03-11T21:10:10.721Z,99.90
2019-03-11T21:12:44.089Z,99.90
2019-03-11T21:15:17.784Z,99.90
2019-03-11T21:17:50.997Z,99.90
2019-03-11T21:20:24.046Z,99.90
2019-03-11T21:22:58.354Z,99.90
2019-03-11T21:25:31.204Z,99.90
2019-03-11T21:28:05.963Z,99.90
2019-03-11T21:30:39.419Z,99.90
2019-03-11T21:33:12.483Z,99.90
2019-03-11T21:35:46.681Z,99.90
2019-03-11T21:38:19.564Z,99.90
2019-03-11T21:40:52.774Z,99.90
2019-03-11T21:43:27.387Z,99.90
2019-03-11T21:46:02.180Z,99.90
2019-03-11T21:48:35.540Z,99.90
2019-03-11T21:51:07.970Z,99.90
2019-03-11T21:53:40.785Z,99.90
2019-03-11T21:56:13.743Z,99.90
2019-03-11T21:58:47.015Z,99.90
2019-03-11T22:01:20.071Z,99.90
2019-03-11T22:03:52.941Z,99.90
2019-03-11T22:06:25.897Z,99.90
2019-03-11T22:08:58.687Z,99.90
2019-03-11T22:11:32.296Z,99.90
2019-03-11T22:14:05.113Z,99.90
2019-03-11T22:16:38.738Z,99.90
2019-03-11T22:19:12.355Z,99.90
2019-03-11T22:21:45.507Z,99.90
2019-03-11T22:24:18.358Z,99.90
2019-03-11T22:26:51.441Z,99.90
2019-03-11T22:29:24.791Z,99.90
2019-03-11T22:31:57.944Z,99.90
2019-03-11T22:34:30.806Z,99.90
2019-03-11T22:37:03.809Z,99.90
2019-03-11T22:39:36.778Z,99.90
2019-03-11T22:42:12.537Z,99.90
2019-03-11T22:44:45.716Z,99.90
2019-03-11T22:47:18.594Z,99.90
2019-03-11T22:49:51.405Z,99.90
2019-03-11T22:52:24.020Z,99.90
2019-03-11T22:54:56.989Z,99.90
2019-03-11T22:57:30.097Z,99.90
2019-03-11T23:00:03.072Z,99.90
2019-03-11T23:02:40.242Z,99.90
2019-03-11T23:05:11.231Z,99.90
2019-03-11T23:07:44.323Z,99.90
2019-03-11T23:10:17.138Z,99.90
2019-03-11T23:12:50.159Z,99.90
2019-03-11T23:15:23.252Z,99.90
2019-03-11T23:17:56.185Z,99.90
2019-03-11T23:20:30.058Z,99.90
2019-03-11T23:23:03.201Z,99.90
2019-03-11T23:25:36.693Z,99.90
2019-03-11T23:28:09.496Z,99.90
2019-03-11T23:30:42.451Z,99.90
2019-03-11T23:33:15.547Z,99.90
2019-03-11T23:35:48.673Z,99.90
2019-03-11T23:38:21.730Z,99.90
2019-03-11T23:40:54.853Z,99.90
2019-03-11T23:43:27.828Z,99.90
2019-03-11T23:46:01.015Z,99.90
2019-03-11T23:48:34.080Z,99.90
2019-03-11T23:51:06.791Z,99.90
2019-03-11T23:53:39.597Z,99.90
2019-03-11T23:56:12.696Z,99.90
2019-03-11T23:58:46.059Z,99.90
